Blue Oak Ranch Reserve, California Weather observations

Data are for 10 minute period ending at time listed.
 Day   Time   Solar   Ave.   Ave.  Ave.  Vector  Max.   Baro.   Total    
  of    of     Rad.   Air    Rel.  Wind   Wind   Wind  Press.  Precip.   
Year   Day            Temp.  Hum.  Speed  Dir.   Gust                    
2015   (PST)  Kw/m2    F      %     mph   deg.    mph    mb.     in.     
-------------------------------------------------------------------------
 207   22:20   0.00   54.8    66    0.7     4     2.7   947.3    0.00 
 207   22:30   0.00   54.8    66    0.7   272     3.6   947.2    0.00 
 207   22:40   0.00   54.3    68    0.5   267     3.2   947.2    0.00 
 207   22:50   0.00   54.9    68    0.3    43     2.3   947.3    0.00 
 207   23:00   0.00   54.9    66    1.3   354     2.7   947.2    0.00 
 207   23:10   0.00   54.1    69    0.8   261     3.0   947.1    0.00 
 207   23:20   0.00   54.6    69    0.5   284     1.5   947.0    0.00 
 207   23:30   0.00   54.3    68    0.3     0     1.4   946.9    0.00 
 207   23:40   0.00   53.0    71    1.9   289     3.7   946.8    0.00 
 207   23:50   0.00   52.5    72    2.3   292     3.9   946.8    0.00 
 208    0:00   0.00   52.0    74    1.8    56     3.3   946.8    0.00 
 208    0:10   0.00   51.9    73    0.8    60     2.3   946.9    0.00 
 208    0:20   0.00   52.3    73    1.3   259     1.9   946.9    0.00 
 208    0:30   0.00   52.5    72    0.4   326     1.2   947.0    0.00 
 208    0:40   0.00   52.2    72    0.2    79     1.2   946.9    0.00 
 208    0:50   0.00   52.0    71    0.8    96     2.4   946.9    0.00 
 208    1:00   0.00   52.1    71    0.2   107     1.0   946.8    0.00 
 208    1:10   0.00   51.9    70    0.1   292     1.3   946.7    0.00 
 208    1:20   0.00   52.0    71    0.1   267     1.5   946.6    0.00 
 208    1:30   0.00   51.6    70    0.0     0     0.0   946.5    0.00 
 208    1:40   0.00   52.0    68    0.7    50     2.1   946.5    0.00 
 208    1:50   0.00   51.5    70    0.1    37     0.7   946.4    0.00 
 208    2:00   0.00   51.8    68    0.6    39     1.8   946.4    0.00 
 208    2:10   0.00   51.7    70    0.6   292     3.2   946.3    0.00 
 208    2:20   0.00   51.9    68    0.7    20     2.0   946.2    0.00 
 208    2:30   0.00   51.3    70    1.9   303     3.8   946.2    0.00 
 208    2:40   0.00   51.2    71    1.0   289     2.4   946.2    0.00 
 208    2:50   0.00   51.4    71    0.7   296     2.1   946.1    0.00 
 208    3:00   0.00   50.8    72    2.4   288     3.8   946.1    0.00 
 208    3:10   0.00   50.5    74    1.3    89     2.8   946.1    0.00 
 208    3:20   0.00   51.7    70    0.9    38     3.2   946.1    0.00 
 208    3:30   0.00   51.9    69    2.4   336     3.9   946.1    0.00 
 208    3:40   0.00   50.5    72    1.8   344     3.4   946.3    0.00 
 208    3:50   0.00   50.1    71    1.0    65     3.4   946.3    0.00 
 208    4:00   0.00   50.5    69    1.8    57     3.2   946.3    0.00 
 208    4:10   0.00   50.3    71    1.1   333     2.3   946.4    0.00 
 208    4:20   0.00   50.5    71    1.1   269     3.7   946.4    0.00 
 208    4:30   0.00   50.1    73    2.0   282     3.6   946.4    0.00 
 208    4:40   0.00   49.9    74    2.2    73     3.4   946.4    0.00 
 208    4:50   0.00   49.8    74    1.8   326     3.6   946.5    0.00 
 208    5:00   0.00   49.8    75    0.4   359     1.5   946.6    0.00 
 208    5:10   0.01   49.8    74    1.4   277     3.4   946.7    0.00 
 208    5:20   0.01   49.9    74    0.7    68     2.1   946.8    0.00 
 208    5:30   0.01   49.8    74    0.7   300     1.8   946.8    0.00 
 208    5:40   0.01   49.7    75    1.6   290     2.6   946.9    0.00 
 208    5:50   0.03   49.9    76    0.8    40     2.0   946.9    0.00 
 208    6:00   0.03   51.2    72    0.2    62     1.2   947.0    0.00 
 208    6:10   0.04   52.4    68    0.4    86     1.5   947.0    0.00 
 208    6:20   0.13   53.7    67    0.1    50     0.9   947.2    0.00 
 208    6:30   0.18   56.9    61    0.4    19     1.2   947.2    0.00 
 208    6:40   0.21   61.8    53    0.9   299     2.9   947.1    0.00 
 208    6:50   0.24   64.8    48    0.4   245     1.8   947.0    0.00 
 208    7:00   0.27   66.7    46    2.2   223     4.5   946.9    0.00 
 208    7:10   0.30   67.5    45    2.0   162     4.6   946.9    0.00 
 208    7:20   0.34   68.9    44    2.6   148     4.4   947.0    0.00 
 208    7:30   0.37   69.4    43    2.9   149     5.3   947.1    0.00 
 208    7:40   0.40   71.5    40    1.4   132     2.7   947.3    0.00 
 208    7:50   0.43   74.3    37    1.6   219     3.4   947.4    0.00 
 208    8:00   0.46   76.3    35    1.3   129     3.7   947.7    0.00 
 208    8:10   0.50   76.5    35    1.8    68     4.4   947.7    0.00 
 208    8:20   0.53   77.6    34    3.1    55     9.0   947.8    0.00 
 208    8:30   0.56   77.8    34    3.2   155     8.3   947.9    0.00 
 208    8:40   0.58   75.3    40    4.2   228     9.7   947.9    0.00 
 208    8:50   0.61   75.0    39    2.6   229     6.9   947.9    0.00 
 208    9:00   0.64   75.2    42    7.0   229    11.9   947.9    0.00 
 208    9:10   0.66   72.9    46    6.7   212     9.7   948.0    0.00 
 208    9:20   0.69   73.5    45    5.7   219     8.9   948.0    0.00 
 208    9:30   0.72   75.1    42    7.3   234    12.1   947.9    0.00 
 208    9:40   0.74   77.5    35   10.1   287    16.4   947.9    0.00 
 208    9:50   0.77   78.7    34   10.5   284    16.8   947.8    0.00 
 208   10:00   0.79   79.1    33   10.7   280    16.8   947.7    0.00 
 208   10:10   0.81   79.1    35    8.1   275    13.0   947.8    0.00 
 208   10:20   0.83   78.2    39    8.3   246    14.5   947.9    0.00 
 208   10:30   0.85   77.7    40    7.9   231    14.2   947.9    0.00 
 208   10:40   0.86   77.2    41    7.4   242    13.0   948.0    0.00 
 208   10:50   0.88   78.9    38    7.3   253    11.3   948.1    0.00 
 208   11:00   0.89   79.4    37    6.0   254    13.4   948.1    0.00 
 208   11:10   0.90   80.9    34    8.1   276    16.7   948.0    0.00 
 208   11:20   0.90   81.0    34    7.9   278    15.9   947.9    0.00 
 208   11:30   0.91   81.1    35    8.7   268    15.3   947.8    0.00 
 208   11:40   0.92   81.1    35    7.2   262    13.4   947.7    0.00 
 208   11:50   0.92   80.9    37    8.2   239    15.4   947.7    0.00 
 208   12:00   0.92   79.5    39    9.1   235    13.1   947.7    0.00 
 208   12:10   0.92   79.8    38    7.3   242    13.4   947.7    0.00 
 208   12:20   0.92   79.9    37    8.1   236    13.7   947.7    0.00 
 208   12:30   0.92   80.2    36    6.9   243    12.9   947.7    0.00 
 208   12:40   0.92   80.6    36    8.6   233    14.5   947.7    0.00 
 208   12:50   0.92   81.5    35    7.4   251    13.4   947.7    0.00 
 208   13:00   0.88   81.9    34    8.8   267    16.1   947.6    0.00 
 208   13:10   0.90   83.2    33    8.0   276    12.5   947.5    0.00 
 208   13:20   0.90   83.3    32    7.5   276    13.4   947.3    0.00 
 208   13:30   0.89   83.3    32    7.3   246    13.3   947.2    0.00 
 208   13:40   0.88   83.4    33    7.8   260    14.0   947.0    0.00 
 208   13:50   0.87   83.9    33    7.1   260    12.1   946.8    0.00 
 208   14:00   0.85   84.7    32    7.9   258    13.6   946.7    0.00 
 208   14:10   0.84   84.6    33    8.2   276    13.9   946.6    0.00 
 208   14:20   0.82   84.6    33    7.9   276    15.1   946.6    0.00 
 208   14:30   0.80   84.7    32    8.0   262    14.6   946.5    0.00 
 208   14:40   0.78   84.5    32    8.2   266    13.8   946.5    0.00 
 208   14:50   0.76   84.9    32    9.3   269    18.1   946.5    0.00 
 208   15:00   0.73   84.7    31    9.2   278    17.2   946.4    0.00 
 208   15:10   0.71   84.7    31    9.6   278    15.5   946.4    0.00 
 208   15:20   0.69   83.8    31   10.4   294    14.3   946.3    0.00 
 208   15:30   0.66   84.2    30    8.9   272    13.8   946.3    0.00 
 208   15:40   0.63   84.5    30    8.4   264    14.0   946.3    0.00 
 208   15:50   0.60   84.9    29    7.8   266    13.0   946.2    0.00 
 208   16:00   0.58   85.5    28    7.2   277    13.6   946.1    0.00 
 208   16:10   0.55   85.3    28    9.4   281    14.6   946.1    0.00 
 208   16:20   0.52   84.7    29    9.3   267    14.3   946.1    0.00 
 208   16:30   0.49   84.7    29    8.0   274    11.9   946.1    0.00 
 208   16:40   0.46   84.8    29    8.3   273    13.8   946.1    0.00 
 208   16:50   0.42   84.0    29    8.8   275    13.5   946.0    0.00 
 208   17:00   0.39   83.4    30    8.6   282    13.0   946.0    0.00 
 208   17:10   0.36   83.0    30    9.0   271    15.1   946.0    0.00 
 208   17:20   0.33   82.3    30    7.9   277    12.8   946.1    0.00 
 208   17:30   0.30   81.4    30    8.6   285    12.9   946.2    0.00 
 208   17:40   0.26   80.9    30    8.7   277    12.6   946.3    0.00 
 208   17:50   0.23   79.8    31    8.7   285    14.5   946.5    0.00 
 208   18:00   0.20   79.3    31    7.2   281    12.3   946.6    0.00 
 208   18:10   0.17   79.2    31    7.1   283    11.5   946.7    0.00 
 208   18:20   0.14   78.3    31    8.4   285    13.2   946.8    0.00 
 208   18:30   0.11   77.2    31    7.3   289    12.0   946.8    0.00 
 208   18:40   0.09   76.5    32    6.7   289    10.5   946.9    0.00 
 208   18:50   0.07   76.0    32    4.5   287     6.4   947.0    0.00 
 208   19:00   0.04   74.9    33    4.7   302     6.8   947.1    0.00 
 208   19:10   0.02   73.3    35    2.9   300     6.3   947.1    0.00 
 208   19:20   0.01   71.1    37    1.2   313     4.0   947.1    0.00 
 208   19:30   0.01   68.4    40    0.3   316     1.0   947.0    0.00 
 208   19:40   0.00   67.2    42    1.3   313     2.6   947.0    0.00 
 208   19:50   0.00   66.5    42    1.5   328     2.8   946.9    0.00 
 208   20:00   0.00   65.6    44    1.5   318     2.6   946.8    0.00 
 208   20:10   0.00   64.5    46    2.0   296     3.7   946.7    0.00 
 208   20:20   0.00   63.7    46    0.3   324     1.1   946.6    0.00 
 208   20:30   0.00   63.3    47    0.2   303     1.7   946.6    0.00 
 208   20:40   0.00   62.7    48    0.2   357     1.2   946.6    0.00 
 208   20:50   0.00   62.1    48    0.4   288     2.2   946.6    0.00 
 208   21:00   0.00   61.7    48    0.7   328     2.2   946.7    0.00 
 208   21:10   0.00   61.3    49    0.6   298     1.8   946.7    0.00 
 208   21:20   0.00   61.4    47    0.5   302     2.0   946.7    0.00 
 208   21:30   0.00   61.4    47    0.5   291     2.1   946.7    0.00 
 208   21:40   0.00   61.1    47    1.1   312     2.9   946.6    0.00 
 208   21:50   0.00   60.1    48    1.8   324     3.4   946.6    0.00 
 208   22:00   0.00   60.9    45    2.5   305     3.7   946.5    0.00 
 208   22:10   0.00   61.8    42    1.9   300     4.6   946.4    0.00 

Return to Blue Oak Ranch Reserve graphs page.


Western Regional Climate Center,wrcc@dri.edu